Time;durP1;ratioP1;P1;durP2;ratioP2;P2;SDS_P1;SDS_P2;PMS_P1;PMS_P2;Temp;Humidity;BMP_temperature;BMP_pressure;BME280_temperature;BME280_humidity;BME280_pressure;Samples;Min_cycle;Max_cycle;Signal;HPM_P1;HPM_P2
2023/05/08 00:01:04;;;;;;;54.30;47.87;;;16.40;99.90;;;16.94;93.10;101945.56;5114389;28;20046;-72
2023/05/08 00:03:32;;;;;;;54.60;47.65;;;16.50;99.90;;;16.89;93.14;101950.09;5109984;28;20281;-72
2023/05/08 00:06:04;;;;;;;54.50;46.95;;;16.50;99.90;;;16.83;92.88;101947.50;5113986;28;20404;-72
2023/05/08 00:08:33;;;;;;;62.75;51.63;;;16.40;99.90;;;16.87;92.54;101947.47;5114252;28;20067;-72
2023/05/08 00:11:01;;;;;;;56.63;47.60;;;16.40;99.90;;;16.81;91.92;101950.22;5114101;28;20126;-72
2023/05/08 00:13:29;;;;;;;57.60;51.13;;;16.40;99.90;;;16.73;91.79;101944.06;5113743;28;20457;-72
2023/05/08 00:15:59;;;;;;;61.05;50.35;;;16.40;99.90;;;16.61;91.88;101957.56;5114082;28;20074;-72
2023/05/08 00:18:28;;;;;;;66.35;55.72;;;16.30;99.90;;;16.48;92.98;101958.63;5114079;28;20492;-72
2023/05/08 00:20:56;;;;;;;71.90;55.53;;;16.10;99.90;;;16.38;94.88;101954.25;5113758;28;20040;-72
2023/05/08 00:23:24;;;;;;;73.18;57.03;;;16.00;99.90;;;16.42;95.81;101953.31;5113983;28;20078;-73
2023/05/08 00:25:52;;;;;;;71.63;57.15;;;16.00;99.90;;;16.49;95.43;101955.03;5109847;28;20073;-72
2023/05/08 00:28:21;;;;;;;72.63;58.35;;;16.00;99.90;;;16.52;95.14;101957.69;5113550;28;20047;-72
2023/05/08 00:30:49;;;;;;;71.75;56.42;;;16.10;99.90;;;16.54;94.19;101966.56;5113734;28;20097;-72
2023/05/08 00:33:19;;;;;;;66.72;55.08;;;16.10;99.90;;;16.39;94.23;101934.66;5113765;28;20050;-72
2023/05/08 00:35:47;;;;;;;70.17;55.60;;;16.10;99.90;;;16.54;94.75;101955.88;5113860;28;20109;-72
2023/05/08 00:38:15;;;;;;;70.95;56.58;;;16.10;99.90;;;16.60;94.62;101965.59;5113154;28;20762;-73
2023/05/08 00:40:44;;;;;;;69.38;55.25;;;16.10;99.90;;;16.53;94.19;101962.13;5113384;28;20492;-72
2023/05/08 00:43:12;;;;;;;60.28;48.30;;;16.20;99.90;;;16.27;93.84;101908.09;5095361;28;20046;-72
2023/05/08 00:45:41;;;;;;;51.22;45.20;;;16.20;99.90;;;16.49;93.65;101952.38;5113486;28;20131;-72
2023/05/08 00:48:09;;;;;;;46.22;40.60;;;16.10;99.90;;;16.52;93.81;101955.00;5113202;28;20043;-72
2023/05/08 00:50:39;;;;;;;47.72;42.53;;;16.20;99.90;;;16.50;93.77;101959.50;5109505;28;20075;-73
2023/05/08 00:53:07;;;;;;;59.20;28.20;;;16.10;99.90;;;16.18;93.55;101949.09;5113685;28;20044;-72
2023/05/08 00:55:35;;;;;;;33.05;29.60;;;15.80;99.90;;;15.82;93.74;101935.22;5113460;28;20289;-72
2023/05/08 00:58:05;;;;;;;49.88;42.05;;;15.50;99.90;;;16.01;94.74;101956.41;5113330;28;20100;-72
2023/05/08 01:00:33;;;;;;;48.33;34.05;;;15.50;99.90;;;16.18;94.61;101950.91;5113115;28;20039;-72
2023/05/08 01:03:02;;;;;;;36.67;32.75;;;15.70;99.90;;;16.18;94.12;101956.25;5094907;28;20480;-71
2023/05/08 01:05:31;;;;;;;31.92;28.70;;;15.80;99.90;;;16.05;93.09;101958.13;5113103;28;20059;-72
2023/05/08 01:08:00;;;;;;;34.47;22.02;;;15.70;99.90;;;15.94;92.44;101962.69;5113281;28;20047;-72
2023/05/08 01:10:44;;;;;;;24.30;21.65;;;15.60;99.90;;;15.92;92.36;101967.16;5113012;28;20052;-72
2023/05/08 01:13:35;;;;;;;25.83;23.15;;;15.50;99.90;;;15.79;92.67;101937.94;5111213;28;20114;-71
2023/05/08 01:16:27;;;;;;;27.30;24.23;;;15.50;99.90;;;15.84;92.87;101966.34;5109945;28;20396;-72
2023/05/08 01:19:04;;;;;;;25.92;23.42;;;15.50;99.90;;;15.57;92.64;101928.31;5110382;28;20540;-72
2023/05/08 01:21:39;;;;;;;23.80;21.50;;;15.40;99.90;;;15.83;92.50;101955.69;5113142;28;20059;-74
2023/05/08 01:25:25;;;;;;;30.52;27.40;;;15.40;99.90;;;15.79;92.58;101956.59;5082937;28;20052;-74
2023/05/08 01:28:19;;;;;;;43.22;36.08;;;15.40;99.90;;;15.83;93.19;101967.22;5049200;28;20083;-73
2023/05/08 01:31:05;;;;;;;24.77;22.30;;;15.40;99.90;;;15.81;93.37;101962.81;5032344;28;20596;-73
2023/05/08 01:33:42;;;;;;;23.65;18.90;;;15.40;99.90;;;15.82;93.36;101961.91;5083615;28;20047;-71
2023/05/08 01:36:23;;;;;;;16.52;15.13;;;15.40;99.90;;;15.91;93.37;101961.84;5113020;28;20043;-71
2023/05/08 01:38:55;;;;;;;;;;;15.50;99.90;;;15.72;92.94;101982.44;5110911;28;20052;-71
2023/05/08 01:41:28;;;;;;;32.50;28.20;;;15.40;99.90;;;15.57;92.88;101945.22;5113028;28;19919;-71
2023/05/08 01:44:12;;;;;;;39.13;34.58;;;15.40;99.90;;;15.74;93.25;101977.09;5113133;28;20067;-72
2023/05/08 01:46:40;;;;;;;40.72;33.45;;;15.30;99.90;;;15.60;93.00;101949.66;5110599;28;20122;-71
2023/05/08 01:49:13;;;;;;;41.00;36.45;;;15.40;99.90;;;15.77;93.00;101974.41;5094637;28;20071;-71
2023/05/08 01:51:46;;;;;;;44.83;37.63;;;15.40;99.90;;;15.71;92.95;101979.78;5112611;28;20044;-74
2023/05/08 01:54:20;;;;;;;52.28;43.05;;;15.40;99.90;;;15.73;93.20;101973.56;5108581;28;20405;-74
2023/05/08 01:56:50;;;;;;;55.90;44.45;;;15.30;99.90;;;15.65;93.15;101967.38;5092557;28;20083;-74
2023/05/08 01:59:23;;;;;;;69.23;53.67;;;15.30;99.90;;;15.70;94.61;101978.91;5086112;28;20052;-74
2023/05/08 02:01:56;;;;;;;71.30;56.13;;;15.20;99.90;;;15.74;95.53;101985.09;5094717;28;20291;-74
2023/05/08 02:04:27;;;;;;;73.85;57.10;;;15.20;99.90;;;15.75;95.83;101977.09;5094512;28;20044;-74
2023/05/08 02:06:57;;;;;;;75.25;58.58;;;15.30;99.90;;;15.85;95.83;101977.91;5082750;28;20052;-73
2023/05/08 02:09:29;;;;;;;80.20;60.13;;;15.40;99.90;;;15.88;96.13;101983.19;5112803;28;20043;-73
2023/05/08 02:11:58;;;;;;;;;;;15.40;99.90;;;15.77;96.64;101985.97;5095045;28;20079;-74
2023/05/08 02:14:28;;;;;;;80.15;59.75;;;15.30;99.90;;;15.81;97.25;101981.50;5112565;28;20029;-74
2023/05/08 02:16:58;;;;;;;81.47;61.13;;;15.40;99.90;;;15.90;97.00;101984.06;5112605;28;20097;-73
2023/05/08 02:19:30;;;;;;;82.00;60.17;;;15.50;99.90;;;15.91;96.60;101989.41;5082630;28;20044;-74
2023/05/08 02:22:00;;;;;;;76.30;57.67;;;15.50;99.90;;;15.86;95.78;101974.31;5108803;28;20463;-74
2023/05/08 02:24:30;;;;;;;77.53;58.45;;;15.50;99.90;;;15.81;95.42;101974.38;5112599;28;20101;-74
2023/05/08 02:26:59;;;;;;;78.20;59.75;;;15.40;99.90;;;15.75;94.94;101961.09;5087088;28;20051;-74
2023/05/08 02:29:29;;;;;;;75.43;58.05;;;15.50;99.90;;;15.85;94.82;101980.56;5097766;28;20554;-71
2023/05/08 02:32:00;;;;;;;60.00;45.78;;;15.40;99.90;;;15.85;93.67;101983.25;5116171;28;20051;-72
2023/05/08 02:34:31;;;;;;;55.00;41.38;;;15.50;99.90;;;15.77;92.88;101979.75;5094442;28;20048;-71
2023/05/08 02:37:01;;;;;;;48.22;39.03;;;15.40;99.90;;;15.73;92.96;101978.00;5090925;28;20144;-71
2023/05/08 02:39:33;;;;;;;45.67;34.90;;;15.30;99.90;;;15.71;93.17;101983.34;5097768;28;20055;-71
2023/05/08 02:42:02;;;;;;;43.38;33.15;;;15.40;99.90;;;15.73;93.09;101976.22;5097720;28;20071;-71
2023/05/08 02:44:31;;;;;;;45.15;31.55;;;15.40;99.90;;;15.62;93.18;101977.22;5097585;28;20150;-71
2023/05/08 02:47:10;;;;;;;41.28;33.72;;;15.30;99.90;;;15.57;93.18;101977.22;5089290;28;20461;-71
2023/05/08 02:49:52;;;;;;;42.88;34.20;;;15.20;99.90;;;15.51;93.34;101979.03;5111858;28;20508;-71
2023/05/08 02:52:28;;;;;;;42.67;34.35;;;15.10;99.90;;;15.46;93.89;101972.88;5097435;28;20136;-71
2023/05/08 02:55:03;;;;;;;44.88;36.20;;;15.00;99.90;;;15.47;94.00;101974.63;5077265;28;20439;-71
2023/05/08 02:57:39;;;;;;;56.92;43.63;;;15.10;99.90;;;15.45;93.83;101976.44;5097151;28;20043;-71
2023/05/08 03:00:14;;;;;;;59.15;44.38;;;15.10;99.90;;;15.38;93.46;101981.78;5115459;28;20070;-71
2023/05/08 03:02:48;;;;;;;69.15;50.03;;;15.00;99.90;;;15.41;94.00;101969.31;5115579;28;20039;-71
2023/05/08 03:05:20;;;;;;;74.75;52.35;;;15.00;99.90;;;15.42;94.74;101980.00;5112357;28;20146;-71
2023/05/08 03:07:54;;;;;;;86.18;55.60;;;15.00;99.90;;;15.39;95.54;101978.19;5115110;28;20314;-71
2023/05/08 03:10:29;;;;;;;79.38;54.97;;;15.00;99.90;;;15.34;97.03;101976.47;5088642;28;20050;-71
2023/05/08 03:12:59;;;;;;;77.80;54.55;;;14.90;99.90;;;15.48;97.45;101977.31;5111799;28;20081;-72
2023/05/08 03:15:33;;;;;;;93.22;59.30;;;15.00;99.90;;;15.12;96.97;101866.41;5096902;28;20400;-71
2023/05/08 03:18:09;;;;;;;122.25;61.28;;;15.30;99.90;;;15.80;96.90;101974.38;5115125;28;20053;-71
2023/05/08 03:20:44;;;;;;;102.00;61.63;;;15.40;99.90;;;15.81;96.78;101982.38;5093505;28;20062;-72
2023/05/08 03:23:15;;;;;;;177.25;61.28;;;15.40;99.90;;;15.88;97.02;101984.09;5111827;28;20043;-71
2023/05/08 03:25:44;;;;;;;103.90;60.90;;;15.50;99.90;;;15.81;96.69;101986.84;5114771;28;20468;-71
2023/05/08 03:28:16;;;;;;;94.63;56.75;;;15.50;99.90;;;15.77;97.61;101977.97;5088762;28;20051;-71
2023/05/08 03:30:45;;;;;;;100.10;59.97;;;15.40;99.90;;;15.81;97.80;101981.50;5096780;28;20048;-71
2023/05/08 03:33:16;;;;;;;92.32;55.80;;;15.40;99.90;;;15.83;98.19;101972.56;5096610;28;20047;-71
2023/05/08 03:35:48;;;;;;;100.32;55.13;;;15.40;99.90;;;15.93;98.20;101978.75;5089257;28;20048;-71
2023/05/08 03:38:17;;;;;;;98.00;54.72;;;15.50;99.90;;;15.92;97.89;101976.94;5096082;28;20473;-71
2023/05/08 03:40:46;;;;;;;99.32;55.60;;;15.60;99.90;;;15.92;97.71;101968.94;5114816;28;20040;-71
2023/05/08 03:43:17;;;;;;;94.05;53.33;;;15.60;99.90;;;15.76;98.31;101968.19;5096474;28;20086;-71
2023/05/08 03:45:46;;;;;;;90.10;54.22;;;15.40;99.90;;;15.65;98.76;101948.72;5096400;28;20047;-71
2023/05/08 03:48:15;;;;;;;101.25;59.25;;;15.30;99.90;;;15.96;98.82;101966.25;5096217;28;20504;-71
2023/05/08 03:50:45;;;;;;;98.32;56.28;;;15.50;99.90;;;15.95;98.41;101955.59;5084529;28;20052;-71
2023/05/08 03:53:14;;;;;;;102.13;57.22;;;15.60;99.90;;;16.01;98.02;101966.19;5076129;28;20060;-71
2023/05/08 03:55:42;;;;;;;100.93;57.20;;;15.60;99.90;;;16.02;97.55;101959.97;5096264;28;20048;-71
2023/05/08 03:58:21;;;;;;;97.82;55.25;;;15.70;99.90;;;16.00;97.31;101959.09;5088031;28;20485;-71
2023/05/08 04:01:03;;;;;;;101.80;56.25;;;15.70;99.90;;;16.04;97.28;101969.72;5087983;28;20807;-71
2023/05/08 04:03:44;;;;;;;96.20;52.42;;;15.70;99.90;;;15.97;97.54;101976.00;5085025;28;20055;-71
2023/05/08 04:06:20;;;;;;;94.82;52.78;;;15.60;99.90;;;15.95;97.68;101971.59;5104651;28;20121;-71
2023/05/08 04:08:55;;;;;;;88.25;50.00;;;15.60;99.90;;;15.96;98.04;101962.69;5089716;28;20451;-71
2023/05/08 04:11:30;;;;;;;92.82;51.15;;;15.60;99.90;;;16.03;97.96;101978.63;5114236;28;20082;-71
2023/05/08 04:14:05;;;;;;;92.05;49.97;;;15.70;99.90;;;15.98;97.37;101947.53;5114089;28;20078;-71
2023/05/08 04:16:39;;;;;;;88.68;48.40;;;15.70;99.90;;;16.09;97.48;101970.56;5089238;28;20052;-71
2023/05/08 04:19:15;;;;;;;84.88;47.45;;;15.70;99.90;;;16.18;97.25;101967.78;5095478;28;20081;-71
2023/05/08 04:21:45;;;;;;;87.72;48.63;;;15.80;99.90;;;16.25;96.75;101979.31;5087610;28;20476;-71
2023/05/08 04:24:17;;;;;;;87.22;47.88;;;15.90;99.90;;;16.27;96.46;101972.16;5092255;28;20143;-71
2023/05/08 04:26:46;;;;;;;85.80;47.00;;;15.90;99.90;;;16.22;96.83;101968.66;5100775;28;20047;-71
2023/05/08 04:29:17;;;;;;;84.82;47.35;;;15.90;99.90;;;16.22;97.22;101977.53;5095611;28;20079;-71
2023/05/08 04:31:46;;;;;;;85.63;48.08;;;15.80;99.90;;;16.25;97.22;101968.63;5095457;28;20389;-71
2023/05/08 04:34:17;;;;;;;84.03;47.78;;;15.90;99.90;;;16.34;97.31;101976.53;5113788;28;20062;-71
2023/05/08 04:36:47;;;;;;;85.68;46.65;;;15.90;99.90;;;16.43;97.23;101975.56;5113697;28;20134;-71
2023/05/08 04:39:18;;;;;;;81.90;46.72;;;16.00;99.90;;;16.44;97.03;101978.22;5113775;28;20074;-71
2023/05/08 04:41:49;;;;;;;88.30;47.92;;;16.00;99.90;;;16.46;96.80;101973.75;5092022;28;20051;-71
2023/05/08 04:44:18;;;;;;;89.20;47.08;;;16.10;99.90;;;16.43;96.83;101975.56;5095348;28;20054;-72
2023/05/08 04:46:48;;;;;;;77.28;44.08;;;16.00;99.90;;;16.46;96.94;101976.41;5087003;28;20138;-71
2023/05/08 04:49:17;;;;;;;84.82;45.72;;;16.10;99.90;;;16.40;96.97;101986.28;5112657;28;20048;-71
2023/05/08 04:51:47;;;;;;;88.03;46.25;;;16.00;99.90;;;16.50;96.93;101996.00;5113390;28;20088;-71
2023/05/08 04:54:15;;;;;;;75.77;42.77;;;16.10;99.90;;;16.45;97.50;101988.03;5095132;28;20052;-71
2023/05/08 04:56:44;;;;;;;80.07;43.88;;;16.10;99.90;;;16.38;97.56;101982.72;5087040;28;20374;-71
2023/05/08 04:59:12;;;;;;;74.60;40.58;;;16.00;99.90;;;16.46;97.70;101996.88;5091745;28;20075;-71
2023/05/08 05:01:43;;;;;;;72.70;40.05;;;16.00;99.90;;;16.59;97.59;101994.09;5075171;28;20101;-71
2023/05/08 05:04:12;;;;;;;68.47;39.47;;;16.10;99.90;;;16.59;97.39;102007.47;5113314;28;20495;-71
2023/05/08 05:06:41;;;;;;;71.03;39.70;;;16.20;99.90;;;16.60;97.36;102009.25;5086434;28;20055;-71
2023/05/08 05:09:11;;;;;;;66.85;38.70;;;16.20;99.90;;;16.60;97.29;102006.59;5095004;28;20043;-71
2023/05/08 05:11:40;;;;;;;72.15;40.25;;;16.20;99.90;;;16.56;98.04;102004.84;5086822;28;20043;-71
2023/05/08 05:14:08;;;;;;;68.35;38.25;;;16.20;99.90;;;16.68;97.93;102006.50;5094987;28;20047;-71
2023/05/08 05:16:37;;;;;;;71.18;38.88;;;16.30;99.90;;;16.65;97.69;102015.41;5086837;28;20436;-71
2023/05/08 05:19:05;;;;;;;70.35;38.53;;;16.20;99.90;;;16.62;98.29;102022.59;5094792;28;20039;-71
2023/05/08 05:21:36;;;;;;;75.03;42.72;;;16.20;99.90;;;16.47;98.06;102012.94;5082818;28;20067;-71
2023/05/08 05:24:06;;;;;;;81.55;45.50;;;16.20;99.90;;;16.44;98.29;102018.28;5075259;28;20044;-70
2023/05/08 05:26:37;;;;;;;77.60;45.58;;;16.10;99.90;;;16.45;98.43;102036.09;5094833;28;20043;-71
2023/05/08 05:29:06;;;;;;;79.80;47.53;;;16.10;99.90;;;16.50;98.48;102033.38;5086550;28;20047;-71
2023/05/08 05:31:35;;;;;;;78.65;45.83;;;16.10;99.90;;;16.53;98.50;102034.25;5094723;28;20063;-71
2023/05/08 05:34:03;;;;;;;71.28;45.67;;;16.20;99.90;;;16.55;98.61;102039.59;5112900;28;20113;-71
2023/05/08 05:36:31;;;;;;;68.07;42.42;;;16.10;99.90;;;16.63;98.18;102040.38;5094639;28;20489;-71
2023/05/08 05:39:00;;;;;;;77.20;46.88;;;16.20;99.90;;;16.65;98.19;102042.13;5112705;28;20048;-71
2023/05/08 05:41:28;;;;;;;74.82;47.20;;;16.30;99.90;;;16.59;98.29;102038.66;5112906;28;20040;-71
2023/05/08 05:43:58;;;;;;;79.90;46.70;;;16.30;99.90;;;16.60;98.68;102043.09;5108647;28;20050;-72
2023/05/08 05:46:31;;;;;;;79.72;48.85;;;16.30;99.90;;;16.63;98.43;102056.41;5094668;28;20048;-71
2023/05/08 05:49:02;;;;;;;74.28;45.00;;;16.30;99.90;;;16.52;98.56;102045.84;5086476;28;20093;-71
2023/05/08 05:51:31;;;;;;;81.45;45.65;;;16.20;99.90;;;16.36;99.16;102057.53;5094528;28;20073;-71
2023/05/08 05:54:00;;;;;;;75.38;42.97;;;16.10;99.90;;;16.15;100.00;102055.03;5094577;28;20047;-71
2023/05/08 05:56:29;;;;;;;60.35;35.55;;;15.90;99.90;;;16.29;100.00;102047.81;5094428;28;20133;-71
2023/05/08 05:58:59;;;;;;;50.83;31.40;;;16.00;99.90;;;16.46;99.76;102053.88;5102084;28;20116;-71
2023/05/08 06:01:28;;;;;;;51.27;30.13;;;16.10;99.90;;;16.57;98.98;102060.03;5110540;28;20480;-71
2023/05/08 06:03:57;;;;;;;48.40;30.88;;;16.20;99.90;;;16.62;98.55;102050.19;5098305;28;20281;-72
2023/05/08 06:06:25;;;;;;;62.60;35.05;;;16.30;99.90;;;16.59;98.62;102052.03;5089994;28;20209;-71
2023/05/08 06:08:54;;;;;;;43.63;27.83;;;16.30;99.90;;;16.70;98.34;102058.13;5098214;28;20044;-71
2023/05/08 06:11:23;;;;;;;47.22;29.27;;;16.30;99.90;;;16.60;97.75;102030.63;5116462;28;20378;-71
2023/05/08 06:13:52;;;;;;;46.97;30.30;;;16.40;99.90;;;16.67;97.26;102021.63;5098102;28;20055;-71
2023/05/08 06:16:23;;;;;;;47.35;29.08;;;16.50;99.90;;;16.90;96.75;102057.00;5089436;28;20074;-72
2023/05/08 06:18:52;;;;;;;44.90;29.38;;;16.60;99.90;;;16.89;96.84;102049.00;5116298;28;20065;-72
2023/05/08 06:21:20;;;;;;;50.60;31.33;;;16.60;99.90;;;16.84;96.70;102048.19;5094101;28;20132;-72
2023/05/08 06:23:49;;;;;;;43.03;28.08;;;16.60;99.90;;;16.98;96.39;102064.94;5115948;28;20043;-72
2023/05/08 06:26:17;;;;;;;50.20;30.98;;;16.60;99.90;;;17.04;95.74;102064.84;5097781;28;20126;-72
2023/05/08 06:28:45;;;;;;;46.25;29.70;;;16.70;99.90;;;17.05;95.44;102054.13;5116061;28;20075;-72
2023/05/08 06:31:14;;;;;;;53.50;32.35;;;16.70;99.90;;;17.10;95.30;102064.78;5115631;28;20074;-72
2023/05/08 06:33:44;;;;;;;53.13;32.45;;;16.70;99.90;;;16.99;95.07;102026.63;5116021;28;20071;-72
2023/05/08 06:36:13;;;;;;;53.97;33.55;;;16.80;99.90;;;17.10;94.86;102035.38;5097760;28;20051;-72
2023/05/08 06:38:42;;;;;;;63.08;36.67;;;16.90;99.90;;;17.21;94.77;102056.66;5115704;28;20036;-72
2023/05/08 06:41:10;;;;;;;62.53;35.65;;;16.90;99.90;;;17.26;95.18;102057.47;5097550;28;20550;-72
2023/05/08 06:43:41;;;;;;;60.47;37.13;;;16.90;99.90;;;17.36;94.93;102049.31;5112216;28;20040;-72
2023/05/08 06:46:10;;;;;;;59.38;35.80;;;17.00;99.90;;;17.36;94.67;102048.41;5097256;28;20075;-72
2023/05/08 06:48:38;;;;;;;65.40;35.80;;;17.00;99.90;;;17.41;94.81;102049.22;5115940;28;20051;-73
2023/05/08 06:51:08;;;;;;;67.05;40.15;;;17.10;99.90;;;17.47;94.00;102055.41;5115416;28;20046;-72
2023/05/08 06:53:36;;;;;;;67.80;39.17;;;17.10;99.90;;;17.47;93.90;102050.03;5115651;28;20044;-71
2023/05/08 06:56:05;;;;;;;73.43;41.95;;;17.20;99.90;;;17.53;93.78;102046.44;5115376;28;20550;-72
2023/05/08 06:58:34;;;;;;;72.28;41.50;;;17.20;99.90;;;17.49;93.56;102044.69;5089101;28;20051;-72
2023/05/08 07:01:03;;;;;;;71.82;42.17;;;17.20;99.90;;;17.60;93.54;102050.78;5115173;28;20035;-71
2023/05/08 07:03:31;;;;;;;75.82;43.63;;;17.20;99.90;;;17.54;93.47;102034.81;5097082;28;20047;-71
2023/05/08 07:05:59;;;;;;;73.40;42.88;;;17.20;99.90;;;17.57;93.70;102042.81;5115122;28;20055;-72
2023/05/08 07:08:31;;;;;;;80.28;44.58;;;17.20;99.90;;;17.68;93.71;102049.78;5085113;28;20050;-71
2023/05/08 07:10:59;;;;;;;86.70;46.25;;;17.30;99.90;;;17.68;93.63;102048.88;5115190;28;20058;-72
2023/05/08 07:13:27;;;;;;;88.20;47.78;;;17.30;99.90;;;17.71;93.71;102039.00;5114264;28;20036;-71
2023/05/08 07:15:56;;;;;;;93.35;50.00;;;17.30;99.90;;;17.72;93.82;102040.78;5088737;28;20040;-71
2023/05/08 07:18:24;;;;;;;100.53;52.10;;;17.40;99.90;;;17.72;93.56;102038.13;5096838;28;20689;-71
2023/05/08 07:20:53;;;;;;;90.53;48.90;;;17.40;99.90;;;17.82;93.49;102042.44;5114827;28;20075;-72
2023/05/08 07:23:21;;;;;;;98.53;51.88;;;17.50;99.90;;;17.77;93.31;102044.28;5114764;28;20400;-72
2023/05/08 07:25:51;;;;;;;95.82;49.10;;;17.40;99.90;;;17.78;93.91;102042.50;5114660;28;20047;-71
2023/05/08 07:28:20;;;;;;;94.50;51.80;;;17.50;99.90;;;17.79;93.95;102049.59;5110586;28;20040;-71
2023/05/08 07:30:48;;;;;;;90.82;51.20;;;17.50;99.90;;;17.88;93.79;102044.13;5110955;28;20050;-71
2023/05/08 07:33:16;;;;;;;85.53;49.80;;;17.50;99.90;;;17.86;93.53;102053.97;5096591;28;20101;-71
2023/05/08 07:35:45;;;;;;;91.00;52.35;;;17.50;99.90;;;17.81;93.55;102047.78;5114526;28;20039;-71
2023/05/08 07:38:14;;;;;;;92.13;51.95;;;17.50;99.90;;;17.81;93.44;102050.47;5096463;28;20052;-71
2023/05/08 07:40:42;;;;;;;95.40;55.60;;;17.50;99.90;;;17.84;93.61;102051.31;5096557;28;20050;-71
2023/05/08 07:43:13;;;;;;;92.00;53.08;;;17.50;99.90;;;17.86;93.64;102046.84;5114385;28;20126;-71
2023/05/08 07:45:42;;;;;;;102.35;56.00;;;17.50;99.90;;;17.86;93.94;102056.66;5114392;28;20477;-71
2023/05/08 07:48:10;;;;;;;101.78;57.70;;;17.50;99.90;;;17.82;94.13;102046.88;5114258;28;20067;-71
2023/05/08 07:50:39;;;;;;;102.43;58.38;;;17.50;99.90;;;17.85;94.33;102046.81;5096353;28;20397;-71
2023/05/08 07:53:07;;;;;;;112.90;60.80;;;17.40;99.90;;;17.88;94.54;102054.84;5110296;28;20071;-71
2023/05/08 07:55:35;;;;;;;106.47;56.90;;;17.50;99.90;;;17.86;94.57;102056.66;5114127;28;20512;-71
2023/05/08 07:58:04;;;;;;;113.00;59.05;;;17.50;99.90;;;17.86;94.45;102045.94;5114135;28;20040;-71
2023/05/08 08:00:34;;;;;;;116.00;60.47;;;17.50;99.90;;;17.81;94.71;102042.44;5113926;28;20035;-71
2023/05/08 08:03:02;;;;;;;126.47;63.72;;;17.50;99.90;;;17.91;94.51;102044.06;5113939;28;20126;-71
2023/05/08 08:05:31;;;;;;;131.27;65.07;;;17.60;99.90;;;17.95;94.63;102052.03;5114271;28;20046;-71
2023/05/08 08:07:59;;;;;;;138.90;68.50;;;17.60;99.90;;;17.97;94.85;102052.00;5113891;28;20146;-72
2023/05/08 08:10:28;;;;;;;148.38;69.88;;;17.60;99.90;;;17.97;95.07;102046.66;5113783;28;20126;-71
2023/05/08 08:12:56;;;;;;;140.73;67.10;;;17.60;99.90;;;17.99;95.55;102044.81;5114157;28;20109;-71
2023/05/08 08:15:24;;;;;;;150.10;69.28;;;17.70;99.90;;;17.95;95.12;102053.81;5113869;28;20527;-71
2023/05/08 08:17:54;;;;;;;138.98;66.20;;;17.60;99.90;;;17.86;94.98;102028.09;5110315;28;20404;-72
2023/05/08 08:20:22;;;;;;;141.77;65.15;;;17.60;99.90;;;17.90;95.15;102039.63;5084498;28;20063;-71
2023/05/08 08:22:51;;;;;;;133.13;60.05;;;17.60;99.90;;;17.94;94.90;102047.56;5113695;28;20044;-71
2023/05/08 08:25:19;;;;;;;136.02;60.90;;;17.60;99.90;;;18.03;95.03;102058.16;5113487;28;20100;-71
2023/05/08 08:27:48;;;;;;;134.48;60.35;;;17.70;99.90;;;18.07;95.00;102050.94;5113478;28;20552;-71
2023/05/08 08:30:16;;;;;;;130.70;54.65;;;17.70;99.90;;;18.07;94.69;102058.97;5113625;28;20101;-72
2023/05/08 08:32:46;;;;;;;128.52;57.20;;;17.70;99.90;;;18.10;94.36;102058.91;5113413;28;20430;-72
2023/05/08 08:35:16;;;;;;;110.63;53.05;;;17.70;99.90;;;18.01;94.48;102040.34;5113614;28;20390;-71
2023/05/08 08:37:45;;;;;;;111.93;51.78;;;17.80;99.90;;;18.18;94.06;102053.44;5113434;28;20048;-71
2023/05/08 08:40:13;;;;;;;112.80;52.17;;;17.80;99.90;;;18.20;93.80;102047.16;5109619;28;20032;-72
2023/05/08 08:42:42;;;;;;;108.07;51.25;;;17.80;99.90;;;18.19;93.74;102045.41;5095302;28;20431;-72
2023/05/08 08:45:11;;;;;;;93.47;47.70;;;17.80;99.90;;;18.27;93.90;102048.84;5113528;28;20035;-71
2023/05/08 08:47:41;;;;;;;97.55;49.15;;;17.90;99.90;;;18.36;94.00;102048.66;5113221;28;20052;-72
2023/05/08 08:50:11;;;;;;;95.18;48.63;;;18.00;99.90;;;18.46;93.86;102052.09;5113343;28;20097;-71
2023/05/08 08:52:53;;;;;;;93.40;48.97;;;18.10;99.90;;;18.54;93.52;102055.53;5113163;28;20074;-71
2023/05/08 08:55:23;;;;;;;86.90;46.60;;;18.20;99.90;;;18.62;93.10;102058.97;5110029;28;20435;-71
2023/05/08 08:58:07;;;;;;;87.40;47.67;;;18.30;99.90;;;18.69;92.47;102050.78;5113186;28;20285;-71
2023/05/08 09:00:37;;;;;;;78.15;46.58;;;18.30;99.90;;;18.75;92.50;102056.03;5113295;28;20099;-72
2023/05/08 09:03:06;;;;;;;78.43;47.60;;;18.40;99.90;;;18.73;92.43;102035.50;5109816;28;20070;-72
2023/05/08 09:05:35;;;;;;;65.03;44.33;;;18.50;99.90;;;18.18;91.76;101919.50;5113347;28;20073;-72
2023/05/08 09:08:06;;;;;;;58.53;39.17;;;18.60;99.90;;;18.99;91.16;102061.81;5113248;28;20154;-72
2023/05/08 09:10:36;;;;;;;58.22;40.38;;;18.70;99.90;;;19.15;90.79;102060.56;5112901;28;20039;-72
2023/05/08 09:13:04;;;;;;;55.28;41.65;;;18.80;99.90;;;19.25;90.83;102055.00;5112832;28;20047;-72
2023/05/08 09:15:33;;;;;;;48.22;39.65;;;18.90;99.90;;;19.32;90.10;102050.38;5113062;28;20078;-72
2023/05/08 09:18:02;;;;;;;47.72;39.03;;;19.00;99.90;;;19.40;89.23;102054.69;5112733;28;20546;-72
2023/05/08 09:20:31;;;;;;;46.95;38.45;;;19.10;99.90;;;19.44;88.97;102056.41;5108782;28;20500;-72
2023/05/08 09:23:02;;;;;;;52.80;42.15;;;19.20;99.90;;;19.36;88.41;102055.69;5109379;28;20063;-72
2023/05/08 09:25:43;;;;;;;51.28;41.35;;;19.10;99.90;;;19.37;88.29;102052.09;5112839;28;20485;-72
2023/05/08 09:28:16;;;;;;;60.00;45.08;;;19.10;99.90;;;19.35;88.27;102048.56;5113326;28;20047;-72
2023/05/08 09:30:53;;;;;;;56.47;41.08;;;19.10;99.90;;;19.47;88.12;102059.00;5109358;28;20079;-72
2023/05/08 09:33:24;;;;;;;59.22;43.72;;;19.10;99.90;;;19.42;88.22;102055.56;5112986;28;20040;-72
2023/05/08 09:35:52;;;;;;;;;;;19.10;99.90;;;19.36;87.98;102055.69;5096234;28;20479;-72
2023/05/08 09:38:35;;;;;;;59.33;43.40;;;19.00;99.90;;;19.40;88.21;102057.38;5117025;28;19924;-71
2023/05/08 09:41:10;;;;;;;62.88;48.85;;;19.10;99.90;;;19.46;87.84;102067.09;5114168;28;20043;-72
2023/05/08 09:43:39;;;;;;;73.65;61.90;;;19.10;99.90;;;19.35;86.68;102061.09;5116784;28;20066;-72
2023/05/08 09:46:27;;;;;;;77.65;65.88;;;19.00;99.90;;;19.41;87.04;102064.53;5116909;28;20408;-72
2023/05/08 09:48:57;;;;;;;63.65;52.58;;;19.00;99.90;;;19.51;86.03;102062.53;5114952;28;20811;-72
2023/05/08 09:51:27;;;;;;;60.20;48.42;;;19.10;99.90;;;19.54;86.02;102052.59;5116970;28;20097;-72
2023/05/08 09:53:57;;;;;;;61.95;50.65;;;19.20;99.90;;;19.50;86.05;102074.16;5116813;28;20035;-72
2023/05/08 09:56:35;;;;;;;60.20;49.70;;;19.20;99.90;;;19.23;84.91;102042.53;5116502;28;20500;-72
2023/05/08 09:59:05;;;;;;;55.75;48.95;;;19.10;99.90;;;19.45;84.97;102071.56;5114528;28;20050;-72
2023/05/08 10:01:38;;;;;;;54.10;46.85;;;19.10;99.90;;;19.25;84.68;102062.16;5116363;28;20047;-72
2023/05/08 10:04:06;;;;;;;53.08;45.90;;;19.00;99.90;;;19.30;86.20;102057.59;5116144;28;20040;-72
2023/05/08 10:06:36;;;;;;;48.47;40.72;;;19.00;99.90;;;19.36;86.37;102066.41;5116122;28;20047;-72
2023/05/08 10:09:12;;;;;;;50.38;42.75;;;19.00;99.90;;;19.33;86.44;102057.56;5112161;28;20040;-72
2023/05/08 10:11:51;;;;;;;41.83;36.25;;;19.10;99.90;;;19.48;86.89;102065.25;5113776;28;20092;-72
2023/05/08 10:14:20;;;;;;;41.58;35.97;;;19.10;99.90;;;19.48;86.16;102065.25;5116043;28;20040;-72
2023/05/08 10:16:51;;;;;;;38.40;34.17;;;19.20;99.90;;;19.59;85.65;102072.16;5116035;28;20040;-72